createdAt,value
2018-07-10T00:02:35.401Z,98.10
2018-07-10T00:07:17.416Z,98.70
2018-07-10T00:10:01.877Z,98.40
2018-07-10T00:12:30.202Z,98.60
2018-07-10T00:14:58.470Z,98.80
2018-07-10T00:17:26.733Z,99.00
2018-07-10T00:19:55.105Z,99.30
2018-07-10T00:22:23.394Z,99.10
2018-07-10T00:24:51.736Z,99.10
2018-07-10T00:27:20.061Z,99.20
2018-07-10T00:29:48.398Z,99.30
2018-07-10T00:32:16.692Z,99.00
2018-07-10T00:34:45.050Z,99.00
2018-07-10T00:37:13.329Z,98.60
2018-07-10T00:39:41.636Z,98.70
2018-07-10T00:42:09.929Z,98.70
2018-07-10T00:44:38.249Z,98.50
2018-07-10T00:47:06.550Z,98.80
2018-07-10T00:49:34.845Z,98.70
2018-07-10T00:52:03.124Z,98.70
2018-07-10T00:54:31.413Z,98.60
2018-07-10T00:56:59.937Z,98.90
2018-07-10T00:59:28.281Z,98.80
2018-07-10T01:01:56.553Z,98.80
2018-07-10T01:04:24.884Z,99.00
2018-07-10T01:06:53.164Z,98.60
2018-07-10T01:09:21.471Z,98.60
2018-07-10T01:11:49.783Z,98.90
2018-07-10T01:14:18.534Z,98.80
2018-07-10T01:16:46.834Z,98.70
2018-07-10T01:19:16.567Z,98.70
2018-07-10T01:21:45.602Z,98.50
2018-07-10T01:24:16.449Z,98.80
2018-07-10T01:26:44.804Z,98.40
2018-07-10T01:29:20.211Z,98.60
2018-07-10T01:31:49.966Z,98.80
2018-07-10T01:34:18.295Z,98.90
2018-07-10T01:36:46.621Z,99.00
2018-07-10T01:39:15.353Z,99.20
2018-07-10T01:41:43.947Z,99.00
2018-07-10T01:44:12.307Z,99.00
2018-07-10T01:46:40.617Z,99.20
2018-07-10T01:51:36.977Z,99.60
2018-07-10T01:54:05.282Z,99.80
2018-07-10T01:56:33.593Z,99.30
2018-07-10T01:59:02.289Z,99.50
2018-07-10T02:01:30.624Z,99.60
2018-07-10T02:03:59.802Z,99.70
2018-07-10T02:06:29.473Z,99.70
2018-07-10T02:08:58.277Z,99.90
2018-07-10T02:11:26.614Z,99.90
2018-07-10T02:13:54.957Z,99.90
2018-07-10T02:16:23.318Z,99.90
2018-07-10T02:18:51.641Z,99.90
2018-07-10T02:21:19.942Z,99.90
2018-07-10T02:23:48.929Z,99.90
2018-07-10T02:26:26.352Z,99.90
2018-07-10T02:28:55.469Z,99.90
2018-07-10T02:31:24.530Z,99.90
2018-07-10T02:33:53.306Z,99.90
2018-07-10T02:36:22.454Z,99.90
2018-07-10T02:38:52.479Z,99.90
2018-07-10T02:41:22.447Z,99.90
2018-07-10T02:43:55.886Z,99.90
2018-07-10T02:46:24.590Z,99.90
2018-07-10T02:48:53.669Z,99.90
2018-07-10T02:51:22.015Z,99.90
2018-07-10T02:53:50.336Z,99.90
2018-07-10T02:56:20.555Z,99.90
2018-07-10T02:58:49.623Z,99.90
2018-07-10T03:01:18.951Z,99.90
2018-07-10T03:03:48.437Z,99.90
2018-07-10T03:06:16.754Z,99.90
2018-07-10T03:08:45.498Z,99.90
2018-07-10T03:11:14.503Z,99.90
2018-07-10T03:13:43.078Z,99.90
2018-07-10T03:18:40.329Z,99.90
2018-07-10T03:21:08.673Z,99.90
2018-07-10T03:23:36.985Z,99.90
2018-07-10T03:26:05.346Z,99.90
2018-07-10T03:28:33.713Z,99.90
2018-07-10T03:31:02.069Z,99.90
2018-07-10T03:33:30.389Z,99.90
2018-07-10T03:35:58.725Z,99.90
2018-07-10T03:38:27.065Z,99.90
2018-07-10T03:40:55.449Z,99.90
2018-07-10T03:43:23.853Z,99.90
2018-07-10T03:45:52.189Z,99.90
2018-07-10T03:48:21.078Z,99.90
2018-07-10T03:50:49.373Z,99.90
2018-07-10T03:53:18.153Z,99.90
2018-07-10T03:55:46.458Z,99.90
2018-07-10T03:58:14.778Z,99.90
2018-07-10T04:00:43.085Z,99.90
2018-07-10T04:03:11.565Z,99.90
2018-07-10T04:05:39.937Z,99.90
2018-07-10T04:08:09.441Z,99.90
2018-07-10T04:10:38.067Z,99.90
2018-07-10T04:13:12.890Z,99.90
2018-07-10T04:15:42.669Z,99.90
2018-07-10T04:18:13.589Z,99.90
2018-07-10T04:20:52.729Z,99.90
2018-07-10T04:23:22.455Z,99.90
2018-07-10T04:25:53.925Z,99.90
2018-07-10T04:28:28.297Z,99.90
2018-07-10T04:31:21.777Z,99.90
2018-07-10T04:33:50.241Z,99.90
2018-07-10T04:36:19.285Z,99.90
2018-07-10T04:38:53.542Z,99.90
2018-07-10T04:41:23.240Z,99.90
2018-07-10T04:43:53.775Z,99.90
2018-07-10T04:46:24.463Z,99.90
2018-07-10T04:49:00.112Z,99.90
2018-07-10T04:51:33.029Z,99.90
2018-07-10T04:54:12.446Z,99.90
2018-07-10T04:56:46.470Z,99.90
2018-07-10T05:04:12.258Z,99.90
2018-07-10T05:06:40.578Z,99.90
2018-07-10T05:09:09.094Z,99.90
2018-07-10T05:11:43.862Z,99.90
2018-07-10T05:14:12.162Z,99.90
2018-07-10T05:16:40.754Z,99.90
2018-07-10T05:19:09.229Z,99.90
2018-07-10T05:21:37.509Z,99.90
2018-07-10T05:24:05.834Z,99.90
2018-07-10T05:26:34.146Z,99.90
2018-07-10T05:29:02.538Z,99.60
2018-07-10T05:31:32.087Z,99.00
2018-07-10T05:34:00.405Z,98.80
2018-07-10T05:36:28.738Z,98.90
2018-07-10T05:39:04.706Z,98.50
2018-07-10T05:41:36.118Z,98.70
2018-07-10T05:44:04.421Z,98.90
2018-07-10T05:46:32.820Z,98.10
2018-07-10T05:49:03.130Z,98.40
2018-07-10T05:51:51.272Z,98.10
2018-07-10T05:54:20.445Z,98.40
2018-07-10T05:56:48.867Z,98.50
2018-07-10T05:59:17.165Z,98.30
2018-07-10T06:01:45.497Z,98.30
2018-07-10T06:04:16.613Z,98.50
2018-07-10T06:06:45.504Z,98.50
2018-07-10T06:09:14.838Z,98.50
2018-07-10T06:11:43.538Z,98.70
2018-07-10T06:14:11.883Z,98.40
2018-07-10T06:16:41.341Z,98.50
2018-07-10T06:19:10.057Z,98.10
2018-07-10T06:21:41.442Z,97.90
2018-07-10T06:24:11.425Z,97.80
2018-07-10T06:26:40.774Z,97.80
2018-07-10T06:29:10.089Z,98.00
2018-07-10T06:31:52.556Z,98.10
2018-07-10T06:34:27.497Z,98.20
2018-07-10T06:37:02.937Z,98.40
2018-07-10T06:39:31.849Z,98.70
2018-07-10T06:42:04.509Z,97.70
2018-07-10T06:44:35.472Z,97.70
2018-07-10T06:47:09.341Z,97.70
2018-07-10T06:49:37.927Z,98.30
2018-07-10T06:52:21.644Z,98.30
2018-07-10T06:55:10.829Z,97.90
2018-07-10T06:57:57.492Z,98.00
2018-07-10T07:00:26.225Z,97.70
2018-07-10T07:02:54.522Z,97.60
2018-07-10T07:05:22.838Z,97.70
2018-07-10T07:07:51.168Z,97.90
2018-07-10T07:12:47.533Z,97.80
2018-07-10T07:15:19.682Z,97.90
2018-07-10T07:17:48.692Z,98.00
2018-07-10T07:22:45.557Z,97.50
2018-07-10T07:25:13.889Z,97.90
2018-07-10T07:27:42.201Z,97.90
2018-07-10T07:30:10.561Z,97.80
2018-07-10T07:32:38.921Z,97.70
2018-07-10T07:35:07.279Z,98.00
2018-07-10T07:37:38.579Z,97.70
2018-07-10T07:40:06.907Z,97.70
2018-07-10T07:42:35.245Z,97.80
2018-07-10T07:47:32.071Z,98.10
2018-07-10T07:50:00.377Z,97.80
2018-07-10T07:52:30.240Z,97.70
2018-07-10T07:54:59.757Z,98.30
2018-07-10T07:57:28.141Z,98.10
2018-07-10T07:59:56.521Z,98.30
2018-07-10T08:02:25.039Z,98.40
2018-07-10T08:04:53.925Z,98.40
2018-07-10T08:07:23.291Z,98.50
2018-07-10T08:09:54.002Z,99.10
2018-07-10T08:12:22.784Z,99.10
2018-07-10T08:14:51.540Z,99.00
2018-07-10T08:17:20.347Z,99.10
2018-07-10T08:19:48.712Z,99.40
2018-07-10T08:22:17.006Z,99.50
2018-07-10T08:27:13.533Z,99.70
2018-07-10T08:29:41.981Z,99.40
2018-07-10T08:32:11.182Z,99.50
2018-07-10T08:34:39.509Z,99.90
2018-07-10T08:37:07.808Z,99.90
2018-07-10T08:39:36.889Z,99.90
2018-07-10T08:42:05.910Z,99.90
2018-07-10T08:44:34.773Z,99.90
2018-07-10T08:47:03.710Z,99.90
2018-07-10T08:49:36.809Z,99.90
2018-07-10T08:52:06.541Z,99.90
2018-07-10T08:54:34.877Z,99.90
2018-07-10T08:57:03.477Z,99.90
2018-07-10T08:59:32.192Z,99.90
2018-07-10T09:02:00.509Z,99.90
2018-07-10T09:04:28.973Z,99.90
2018-07-10T09:06:57.285Z,99.90
2018-07-10T09:09:25.768Z,99.90
2018-07-10T09:11:54.066Z,99.90
2018-07-10T09:14:22.374Z,99.90
2018-07-10T09:16:50.666Z,99.90
2018-07-10T09:19:21.093Z,99.90
2018-07-10T09:21:54.449Z,99.90
2018-07-10T09:24:22.800Z,99.90
2018-07-10T09:26:52.545Z,99.90
2018-07-10T09:29:22.177Z,99.90
2018-07-10T09:31:51.320Z,99.90
2018-07-10T09:34:19.685Z,99.90
2018-07-10T09:39:16.674Z,99.90
2018-07-10T09:41:45.205Z,99.90
2018-07-10T09:44:13.950Z,99.90
2018-07-10T09:49:10.264Z,99.90
2018-07-10T09:54:09.081Z,99.90
2018-07-10T09:56:37.350Z,99.90
2018-07-10T09:59:05.914Z,99.90
2018-07-10T10:04:02.035Z,99.90
2018-07-10T10:06:30.370Z,99.90
2018-07-10T10:08:58.657Z,99.90
2018-07-10T10:11:27.499Z,99.90
2018-07-10T10:13:55.882Z,99.90
2018-07-10T10:16:24.385Z,99.90
2018-07-10T10:18:55.070Z,99.90
2018-07-10T10:21:23.403Z,99.90
2018-07-10T10:23:51.713Z,99.90
2018-07-10T10:26:21.062Z,99.90
2018-07-10T10:28:49.444Z,99.90
2018-07-10T10:31:18.112Z,99.90
2018-07-10T10:33:46.462Z,99.90
2018-07-10T10:36:14.844Z,99.90
2018-07-10T10:38:44.087Z,99.90
2018-07-10T10:41:13.870Z,99.90
2018-07-10T10:43:42.461Z,99.90
2018-07-10T10:46:10.768Z,99.90
2018-07-10T10:48:39.181Z,99.90
2018-07-10T10:51:07.537Z,99.90
2018-07-10T10:53:36.362Z,99.90
2018-07-10T10:56:04.645Z,99.90
2018-07-10T10:58:33.079Z,99.90
2018-07-10T11:01:02.209Z,99.90
2018-07-10T11:03:30.525Z,99.90
2018-07-10T11:08:26.852Z,99.90
2018-07-10T11:10:55.639Z,99.90
2018-07-10T11:13:24.029Z,99.90
2018-07-10T11:15:52.342Z,99.90
2018-07-10T11:18:30.513Z,99.90
2018-07-10T11:21:03.866Z,99.90
2018-07-10T11:23:43.657Z,99.90
2018-07-10T11:26:12.807Z,99.90
2018-07-10T11:28:41.111Z,99.90
2018-07-10T11:31:09.414Z,99.90
2018-07-10T11:33:37.789Z,99.90
2018-07-10T11:36:06.107Z,99.90
2018-07-10T11:38:34.825Z,99.90
2018-07-10T11:41:03.257Z,99.90
2018-07-10T11:43:31.555Z,99.90
2018-07-10T11:45:59.878Z,99.90
2018-07-10T11:48:28.169Z,99.90
2018-07-10T11:50:57.230Z,99.90
2018-07-10T11:53:25.584Z,99.90
2018-07-10T11:55:53.897Z,99.90
2018-07-10T11:58:22.185Z,99.90
2018-07-10T12:00:50.514Z,99.90
2018-07-10T12:03:18.817Z,99.90
2018-07-10T12:05:47.097Z,99.90
2018-07-10T12:08:15.413Z,99.90
2018-07-10T12:10:46.253Z,99.90
2018-07-10T12:13:14.601Z,99.90
2018-07-10T12:15:42.955Z,99.90
2018-07-10T12:18:14.733Z,99.90
2018-07-10T12:20:43.365Z,99.90
2018-07-10T12:23:12.445Z,99.90
2018-07-10T12:25:43.117Z,99.90
2018-07-10T12:28:12.497Z,99.90
2018-07-10T12:30:40.793Z,99.90
2018-07-10T12:33:09.137Z,99.90
2018-07-10T12:35:37.525Z,99.90
2018-07-10T12:38:05.913Z,99.90
2018-07-10T12:40:34.605Z,99.90
2018-07-10T12:43:02.932Z,99.90
2018-07-10T12:45:31.210Z,99.90
2018-07-10T12:47:59.853Z,99.90
2018-07-10T12:50:28.224Z,99.90
2018-07-10T12:52:56.573Z,99.90
2018-07-10T12:55:26.738Z,99.90
2018-07-10T12:57:55.905Z,99.90
2018-07-10T13:00:26.217Z,99.90
2018-07-10T13:02:54.603Z,99.90
2018-07-10T13:05:25.741Z,99.90
2018-07-10T13:07:54.083Z,99.90
2018-07-10T13:10:22.380Z,99.90
2018-07-10T13:12:50.693Z,99.90
2018-07-10T13:15:19.030Z,99.90
2018-07-10T13:17:50.289Z,99.90
2018-07-10T13:20:19.241Z,99.90
2018-07-10T13:22:47.590Z,99.90
2018-07-10T13:25:15.897Z,99.90
2018-07-10T13:27:44.194Z,99.90
2018-07-10T13:30:12.497Z,99.90
2018-07-10T13:32:40.840Z,99.90
2018-07-10T13:35:09.149Z,99.90
2018-07-10T13:37:38.988Z,99.90
2018-07-10T13:40:07.308Z,99.90
2018-07-10T13:42:47.109Z,99.90
2018-07-10T13:45:16.502Z,99.90
2018-07-10T13:47:44.929Z,99.90
2018-07-10T13:50:15.469Z,99.90
2018-07-10T13:52:44.141Z,99.90
2018-07-10T13:55:12.469Z,99.70
2018-07-10T13:57:43.622Z,99.40
2018-07-10T14:00:11.907Z,99.90
2018-07-10T14:02:41.415Z,99.40
2018-07-10T14:05:09.734Z,97.40
2018-07-10T14:07:38.049Z,98.50
2018-07-10T14:10:06.409Z,99.90
2018-07-10T14:12:34.780Z,99.90
2018-07-10T14:15:03.034Z,99.90
2018-07-10T14:17:31.349Z,99.90
2018-07-10T14:19:59.893Z,99.90
2018-07-10T14:22:28.749Z,99.90
2018-07-10T14:24:57.069Z,99.90
2018-07-10T14:27:25.441Z,99.90
2018-07-10T14:29:53.736Z,99.50
2018-07-10T14:32:22.090Z,99.50
2018-07-10T14:34:50.704Z,99.90
2018-07-10T14:37:19.770Z,98.60
2018-07-10T14:39:48.421Z,97.90
2018-07-10T14:42:17.057Z,96.90
2018-07-10T14:44:45.621Z,96.20
2018-07-10T14:47:14.503Z,96.50
2018-07-10T14:49:42.857Z,96.60
2018-07-10T14:52:11.201Z,95.70
2018-07-10T14:54:39.489Z,94.60
2018-07-10T14:57:07.807Z,93.00
2018-07-10T14:59:36.102Z,92.30
2018-07-10T15:02:04.409Z,90.20
2018-07-10T15:04:32.809Z,90.00
2018-07-10T15:07:01.087Z,87.30
2018-07-10T15:09:31.971Z,85.80
2018-07-10T15:14:28.781Z,85.10
2018-07-10T15:17:02.364Z,85.50
2018-07-10T15:19:30.649Z,86.80
2018-07-10T15:21:58.973Z,86.70
2018-07-10T15:24:27.270Z,89.50
2018-07-10T15:26:55.550Z,90.20
2018-07-10T15:32:22.813Z,91.50
2018-07-10T15:34:51.689Z,91.00
2018-07-10T15:37:20.377Z,89.40
2018-07-10T15:39:48.733Z,90.10
2018-07-10T15:42:17.025Z,90.30
2018-07-10T15:44:45.359Z,90.20
2018-07-10T15:47:13.625Z,90.00
2018-07-10T15:49:41.945Z,91.00
2018-07-10T15:52:10.249Z,91.70
2018-07-10T15:54:38.545Z,91.10
2018-07-10T15:57:06.829Z,90.60
2018-07-10T15:59:35.198Z,91.00
2018-07-10T16:02:03.586Z,91.30
2018-07-10T16:06:59.947Z,92.70
2018-07-10T16:09:28.239Z,92.60
2018-07-10T16:11:59.713Z,92.10
2018-07-10T16:14:28.729Z,92.10
2018-07-10T16:16:57.365Z,92.10
2018-07-10T16:19:30.121Z,91.90
2018-07-10T16:22:05.876Z,91.80
2018-07-10T16:24:37.941Z,91.40
2018-07-10T16:27:06.862Z,91.20
2018-07-10T16:29:35.145Z,91.80
2018-07-10T16:32:06.447Z,92.10
2018-07-10T16:34:34.821Z,92.70
2018-07-10T16:37:03.369Z,92.90
2018-07-10T16:39:31.749Z,93.50
2018-07-10T16:44:09.813Z,93.30
2018-07-10T16:46:39.337Z,93.50
2018-07-10T16:49:15.181Z,93.30
2018-07-10T16:51:49.925Z,93.30
2018-07-10T16:54:18.572Z,93.20
2018-07-10T16:56:46.837Z,93.40
2018-07-10T16:59:15.157Z,94.10
2018-07-10T17:01:44.439Z,93.80
2018-07-10T17:04:12.747Z,94.40
2018-07-10T17:06:41.081Z,94.30
2018-07-10T17:09:09.381Z,93.90
2018-07-10T17:11:37.669Z,93.30
2018-07-10T17:14:06.093Z,93.30
2018-07-10T17:16:34.389Z,93.00
2018-07-10T17:19:02.685Z,93.70
2018-07-10T17:21:31.066Z,92.80
2018-07-10T17:24:01.774Z,92.40
2018-07-10T17:26:30.209Z,92.60
2018-07-10T17:29:00.713Z,92.30
2018-07-10T17:31:29.041Z,92.30
2018-07-10T17:33:57.325Z,92.20
2018-07-10T17:36:25.709Z,91.80
2018-07-10T17:38:54.001Z,91.50
2018-07-10T17:41:24.118Z,91.50
2018-07-10T17:46:20.823Z,91.60
2018-07-10T17:48:49.694Z,91.30
2018-07-10T17:51:17.985Z,91.60
2018-07-10T17:53:46.384Z,91.10
2018-07-10T17:56:14.905Z,92.00
2018-07-10T17:58:43.225Z,92.10
2018-07-10T18:01:11.565Z,92.20
2018-07-10T18:03:39.862Z,92.30
2018-07-10T18:06:08.191Z,92.40
2018-07-10T18:08:36.497Z,92.50
2018-07-10T18:11:05.321Z,92.60
2018-07-10T18:13:33.787Z,92.60
2018-07-10T18:16:02.164Z,92.70
2018-07-10T18:18:30.538Z,91.90
2018-07-10T18:21:00.159Z,92.10
2018-07-10T18:23:29.105Z,92.00
2018-07-10T18:25:57.536Z,91.80
2018-07-10T18:28:25.834Z,91.90
2018-07-10T18:30:54.230Z,92.30
2018-07-10T18:33:22.553Z,92.70
2018-07-10T18:35:50.934Z,92.50
2018-07-10T18:38:20.578Z,92.80
2018-07-10T18:40:49.017Z,92.30
2018-07-10T18:43:18.429Z,92.60
2018-07-10T18:45:46.919Z,92.50
2018-07-10T18:48:20.319Z,92.60
2018-07-10T18:50:48.927Z,93.20
2018-07-10T18:53:17.752Z,93.10
2018-07-10T18:55:46.943Z,93.10
2018-07-10T18:58:24.817Z,93.00
2018-07-10T19:02:06.656Z,93.10
2018-07-10T19:05:11.368Z,93.20
2018-07-10T19:07:41.154Z,93.30
2018-07-10T19:10:09.614Z,93.70
2018-07-10T19:15:07.598Z,93.90
2018-07-10T19:20:13.018Z,94.20
2018-07-10T19:22:51.199Z,94.00
2018-07-10T19:25:19.673Z,93.90
2018-07-10T19:27:52.314Z,94.30
2018-07-10T19:30:23.239Z,94.60
2018-07-10T19:32:51.581Z,94.70
2018-07-10T19:35:20.351Z,95.30
2018-07-10T19:37:48.794Z,94.80
2018-07-10T19:40:18.236Z,95.20
2018-07-10T19:42:47.824Z,95.20
2018-07-10T19:45:17.105Z,95.10
2018-07-10T19:47:45.526Z,95.10
2018-07-10T19:50:16.995Z,95.30
2018-07-10T19:52:49.093Z,95.30
2018-07-10T19:55:17.558Z,95.50
2018-07-10T19:58:05.775Z,95.70
2018-07-10T20:00:44.118Z,95.90
2018-07-10T20:03:28.478Z,95.90
2018-07-10T20:06:01.662Z,96.30
2018-07-10T20:08:30.014Z,96.40
2018-07-10T20:11:02.614Z,97.00
2018-07-10T20:13:42.094Z,97.10
2018-07-10T20:17:20.771Z,96.80
2018-07-10T20:20:20.511Z,97.20
2018-07-10T20:23:59.949Z,97.30
2018-07-10T20:26:42.202Z,97.70
2018-07-10T20:29:18.749Z,97.60
2018-07-10T20:32:04.633Z,97.90
2018-07-10T20:34:41.861Z,98.10
2018-07-10T20:37:15.233Z,98.20
2018-07-10T20:39:43.537Z,98.80
2018-07-10T20:42:11.833Z,98.60
2018-07-10T20:44:42.977Z,99.80
2018-07-10T20:47:11.289Z,98.60
2018-07-10T20:49:48.477Z,98.60
2018-07-10T20:52:25.142Z,98.80
2018-07-10T20:54:56.121Z,98.80
2018-07-10T20:57:30.253Z,98.90
2018-07-10T21:00:05.746Z,99.30
2018-07-10T21:02:42.526Z,99.20
2018-07-10T21:05:13.477Z,99.50
2018-07-10T21:07:53.637Z,99.60
2018-07-10T21:10:29.786Z,99.60
2018-07-10T21:13:06.041Z,99.70
2018-07-10T21:15:47.613Z,99.70
2018-07-10T21:18:30.797Z,99.80
2018-07-10T21:21:22.709Z,99.90
2018-07-10T21:24:25.529Z,99.90
2018-07-10T21:27:00.536Z,99.90
2018-07-10T21:29:38.278Z,99.90
2018-07-10T21:32:09.988Z,99.90
2018-07-10T21:34:43.097Z,99.90
2018-07-10T21:38:22.714Z,99.90
2018-07-10T21:42:01.315Z,99.90
2018-07-10T21:45:39.005Z,99.90
2018-07-10T21:48:19.387Z,99.90
2018-07-10T21:50:50.413Z,99.90
2018-07-10T21:53:19.069Z,99.90
2018-07-10T21:55:47.478Z,99.90
2018-07-10T21:58:17.573Z,99.90
2018-07-10T22:03:18.829Z,99.90
2018-07-10T22:05:47.250Z,99.90
2018-07-10T22:08:15.602Z,99.90
2018-07-10T22:10:43.938Z,99.90
2018-07-10T22:13:12.242Z,99.90
2018-07-10T22:15:40.530Z,99.90
2018-07-10T22:18:08.875Z,99.90
2018-07-10T22:20:37.189Z,99.90
2018-07-10T22:23:05.495Z,99.90
2018-07-10T22:25:33.807Z,99.90
2018-07-10T22:28:02.101Z,99.90
2018-07-10T22:33:04.545Z,99.90
2018-07-10T22:35:33.426Z,99.90
2018-07-10T22:38:01.828Z,99.90
2018-07-10T22:40:30.118Z,99.90
2018-07-10T22:42:58.417Z,99.90
2018-07-10T22:45:27.930Z,99.90
2018-07-10T22:47:56.221Z,99.90
2018-07-10T22:50:24.809Z,99.90
2018-07-10T22:52:54.478Z,99.90
2018-07-10T22:55:27.501Z,99.90
2018-07-10T22:57:59.225Z,99.90
2018-07-10T23:00:30.582Z,99.90
2018-07-10T23:02:59.625Z,99.90
2018-07-10T23:05:28.220Z,99.90
2018-07-10T23:07:56.544Z,99.90
2018-07-10T23:10:25.218Z,99.90
2018-07-10T23:12:53.518Z,99.90
2018-07-10T23:17:49.893Z,99.90
2018-07-10T23:20:18.221Z,99.90
2018-07-10T23:22:54.669Z,99.90
2018-07-10T23:25:24.799Z,99.90
2018-07-10T23:28:01.194Z,99.90
2018-07-10T23:30:32.261Z,99.90
2018-07-10T23:33:00.567Z,99.90
2018-07-10T23:35:31.145Z,99.90
2018-07-10T23:38:05.289Z,99.90
2018-07-10T23:40:34.437Z,99.90
2018-07-10T23:43:02.722Z,99.90
2018-07-10T23:45:30.998Z,99.90
2018-07-10T23:48:04.106Z,99.90
2018-07-10T23:50:34.010Z,99.90
2018-07-10T23:53:13.590Z,99.90
2018-07-10T23:55:41.898Z,99.90
2018-07-10T23:58:10.365Z,99.90
